Wolke Sonne

Wetter Ammerndorf

Gehe zu: Roßtal

Tageswerte vom Sonntag, 06.03.2022

Optionen

Tag:
Erweitert:

Alle Werte vom Sonntag, 06.03.2022

Einen Moment bitte, die Daten werden aufbereitet...

UhrzeitTemperaturBoden 10cmBoden 20cmFeuchteLuftdruckNiederschlagEvapotranspirationWindWindböenWindrichtungSolarstrahlungUV-IndexSonne?Uhrzeit
Diagramm IconDiagramm IconDiagramm IconDiagramm IconDiagramm IconDiagramm IconDiagramm IconDiagramm IconDiagramm IconDiagramm IconDiagramm IconDiagramm IconDiagramm Icon
00:00-0,4 °C 2,2 °C 2,8 °C 78 % 1023,7 hPa 0,0 mm - 1,4 km/h 3,2 km/h NO 0,0 W/qm 0,0 nein 00:00
00:05-0,5 °C 2,2 °C 2,8 °C 79 % 1023,6 hPa 0,0 mm 0,0 mm 1,4 km/h 4,7 km/h NO 0,0 W/qm 0,0 nein 00:05
00:10-0,4 °C 2,2 °C 2,8 °C 79 % 1023,6 hPa 0,0 mm 0,0 mm 0,0 km/h 4,7 km/h NNO 0,0 W/qm 0,0 nein 00:10
00:15-0,4 °C 2,2 °C 2,8 °C 78 % 1023,7 hPa 0,0 mm - 0,0 km/h 4,7 km/h NO 0,0 W/qm 0,0 nein 00:15
00:20-0,4 °C 2,2 °C 2,8 °C 78 % 1023,6 hPa 0,0 mm - 0,0 km/h 4,7 km/h NO 0,0 W/qm 0,0 nein 00:20
00:25-0,4 °C 2,2 °C 2,8 °C 77 % 1023,7 hPa 0,0 mm - 0,0 km/h 4,7 km/h NO 0,0 W/qm 0,0 nein 00:25
00:30-0,4 °C 2,2 °C 2,8 °C 77 % 1023,7 hPa 0,0 mm - 0,0 km/h 3,2 km/h NO 0,0 W/qm 0,0 nein 00:30
00:35-0,5 °C 2,2 °C 2,8 °C 78 % 1023,8 hPa 0,0 mm - 0,0 km/h 0,0 km/h NO 0,0 W/qm 0,0 nein 00:35
00:40-0,5 °C 2,2 °C 2,8 °C 78 % 1023,8 hPa 0,0 mm - 0,0 km/h 0,0 km/h NO 0,0 W/qm 0,0 nein 00:40
00:45-0,6 °C 2,2 °C 2,8 °C 78 % 1023,7 hPa 0,0 mm - 0,0 km/h 0,0 km/h NO 0,0 W/qm 0,0 nein 00:45
00:50-0,6 °C 2,2 °C 2,8 °C 79 % 1023,8 hPa 0,0 mm - 0,0 km/h 0,0 km/h NO 0,0 W/qm 0,0 nein 00:50
00:55-0,6 °C 2,2 °C 2,8 °C 79 % 1023,7 hPa 0,0 mm - 0,0 km/h 0,0 km/h NO 0,0 W/qm 0,0 nein 00:55
01:00-0,6 °C 2,2 °C 2,8 °C 79 % 1023,7 hPa 0,0 mm - 1,4 km/h 4,7 km/h N 0,0 W/qm 0,0 nein 01:00
01:05-0,3 °C 2,2 °C 2,8 °C 77 % 1023,6 hPa 0,0 mm 0,0 mm 1,4 km/h 6,5 km/h NO 0,0 W/qm 0,0 nein 01:05
01:10-0,3 °C 2,2 °C 2,8 °C 77 % 1023,5 hPa 0,0 mm 0,0 mm 1,4 km/h 6,5 km/h NO 0,0 W/qm 0,0 nein 01:10
01:15-0,2 °C 2,2 °C 2,8 °C 76 % 1023,4 hPa 0,0 mm - 1,4 km/h 6,5 km/h NO 0,0 W/qm 0,0 nein 01:15
01:20-0,2 °C 2,2 °C 2,8 °C 76 % 1023,5 hPa 0,0 mm - 0,0 km/h 4,7 km/h NO 0,0 W/qm 0,0 nein 01:20
01:25-0,2 °C 2,2 °C 2,8 °C 76 % 1023,5 hPa 0,0 mm - 0,0 km/h 3,2 km/h NO 0,0 W/qm 0,0 nein 01:25
01:30-0,3 °C 2,2 °C 2,8 °C 76 % 1023,5 hPa 0,0 mm - 0,0 km/h 3,2 km/h NO 0,0 W/qm 0,0 nein 01:30
01:35-0,6 °C 2,2 °C 2,8 °C 77 % 1023,5 hPa 0,0 mm - 0,0 km/h 3,2 km/h NO 0,0 W/qm 0,0 nein 01:35
01:40-0,7 °C 2,2 °C 2,8 °C 77 % 1023,6 hPa 0,0 mm - 0,0 km/h 0,0 km/h ONO 0,0 W/qm 0,0 nein 01:40
01:45-0,6 °C 2,2 °C 2,8 °C 77 % 1023,7 hPa 0,0 mm - 0,0 km/h 1,4 km/h ONO 0,0 W/qm 0,0 nein 01:45
01:50-0,5 °C 2,2 °C 2,8 °C 77 % 1023,6 hPa 0,0 mm - 0,0 km/h 3,2 km/h ONO 0,0 W/qm 0,0 nein 01:50
01:55-0,7 °C 2,2 °C 2,8 °C 77 % 1023,6 hPa 0,0 mm - 0,0 km/h 3,2 km/h ONO 0,0 W/qm 0,0 nein 01:55
UhrzeitTemperaturBoden 10cmBoden 20cmFeuchteLuftdruckNiederschlagEvapotranspirationWindWindböenWindrichtungSolarstrahlungUV-IndexSonne?Uhrzeit
02:00-0,9 °C 2,2 °C 2,8 °C 78 % 1023,6 hPa 0,0 mm - 0,0 km/h 1,4 km/h ONO 0,0 W/qm 0,0 nein 02:00
02:05-1,1 °C 2,2 °C 2,8 °C 79 % 1023,7 hPa 0,0 mm 0,0 mm 0,0 km/h 1,4 km/h ONO 0,0 W/qm 0,0 nein 02:05
02:10-1,2 °C 2,2 °C 2,8 °C 80 % 1023,7 hPa 0,0 mm 0,0 mm 0,0 km/h 1,4 km/h ONO 0,0 W/qm 0,0 nein 02:10
02:15-1,4 °C 2,2 °C 2,8 °C 80 % 1023,8 hPa 0,0 mm - 0,0 km/h 1,4 km/h ONO 0,0 W/qm 0,0 nein 02:15
02:20-1,6 °C 2,2 °C 2,8 °C 80 % 1023,7 hPa 0,0 mm - 0,0 km/h 1,4 km/h ONO 0,0 W/qm 0,0 nein 02:20
02:25-1,7 °C 2,2 °C 2,8 °C 81 % 1023,7 hPa 0,0 mm - 0,0 km/h 1,4 km/h ONO 0,0 W/qm 0,0 nein 02:25
02:30-1,7 °C 2,2 °C 2,8 °C 81 % 1023,7 hPa 0,0 mm - 0,0 km/h 1,4 km/h ONO 0,0 W/qm 0,0 nein 02:30
02:35-1,8 °C 2,2 °C 2,8 °C 81 % 1023,7 hPa 0,0 mm - 0,0 km/h 4,7 km/h ONO 0,0 W/qm 0,0 nein 02:35
02:40-2,0 °C 2,2 °C 2,8 °C 81 % 1023,9 hPa 0,0 mm - 0,0 km/h 4,7 km/h ONO 0,0 W/qm 0,0 nein 02:40
02:45-2,1 °C 2,2 °C 2,8 °C 82 % 1023,9 hPa 0,0 mm - 0,0 km/h 4,7 km/h ONO 0,0 W/qm 0,0 nein 02:45
02:50-2,1 °C 2,2 °C 2,8 °C 81 % 1023,9 hPa 0,0 mm - 0,0 km/h 3,2 km/h ONO 0,0 W/qm 0,0 nein 02:50
02:55-2,4 °C 2,2 °C 2,8 °C 82 % 1023,9 hPa 0,0 mm - 0,0 km/h 3,2 km/h ONO 0,0 W/qm 0,0 nein 02:55
03:00-2,5 °C 2,2 °C 2,8 °C 83 % 1024,0 hPa 0,0 mm - 0,0 km/h 0,0 km/h ONO 0,0 W/qm 0,0 nein 03:00
03:05-2,6 °C 2,2 °C 2,8 °C 83 % 1024,0 hPa 0,0 mm 0,0 mm 0,0 km/h 1,4 km/h ONO 0,0 W/qm 0,0 nein 03:05
03:10-2,7 °C 2,2 °C 2,8 °C 83 % 1024,0 hPa 0,0 mm 0,0 mm 0,0 km/h 1,4 km/h NO 0,0 W/qm 0,0 nein 03:10
03:15-2,8 °C 2,2 °C 2,8 °C 84 % 1024,0 hPa 0,0 mm - 0,0 km/h 3,2 km/h NO 0,0 W/qm 0,0 nein 03:15
03:20-2,9 °C 2,2 °C 2,8 °C 84 % 1024,0 hPa 0,0 mm - 0,0 km/h 3,2 km/h NO 0,0 W/qm 0,0 nein 03:20
03:25-2,9 °C 2,2 °C 2,8 °C 84 % 1024,0 hPa 0,0 mm - 0,0 km/h 3,2 km/h NO 0,0 W/qm 0,0 nein 03:25
03:30-2,9 °C 2,2 °C 2,8 °C 85 % 1024,0 hPa 0,0 mm - 0,0 km/h 3,2 km/h NO 0,0 W/qm 0,0 nein 03:30
03:35-2,9 °C 2,2 °C 2,8 °C 85 % 1024,0 hPa 0,0 mm - 0,0 km/h 3,2 km/h NO 0,0 W/qm 0,0 nein 03:35
03:40-2,8 °C 2,2 °C 2,8 °C 85 % 1024,0 hPa 0,0 mm - 0,0 km/h 4,7 km/h NO 0,0 W/qm 0,0 nein 03:40
03:45-2,8 °C 2,2 °C 2,8 °C 85 % 1024,0 hPa 0,0 mm - 0,0 km/h 4,7 km/h NO 0,0 W/qm 0,0 nein 03:45
03:50-2,5 °C 2,2 °C 2,8 °C 85 % 1024,1 hPa 0,0 mm - 0,0 km/h 4,7 km/h ONO 0,0 W/qm 0,0 nein 03:50
03:55-2,4 °C 2,2 °C 2,8 °C 85 % 1023,9 hPa 0,0 mm - 1,4 km/h 7,9 km/h NO 0,0 W/qm 0,0 nein 03:55
UhrzeitTemperaturBoden 10cmBoden 20cmFeuchteLuftdruckNiederschlagEvapotranspirationWindWindböenWindrichtungSolarstrahlungUV-IndexSonne?Uhrzeit
04:00-2,4 °C 2,2 °C 2,8 °C 84 % 1023,9 hPa 0,0 mm - 1,4 km/h 7,9 km/h NNO 0,0 W/qm 0,0 nein 04:00
04:05-2,4 °C 2,2 °C 2,8 °C 84 % 1023,9 hPa 0,0 mm 0,0 mm 0,0 km/h 7,9 km/h NO 0,0 W/qm 0,0 nein 04:05
04:10-2,3 °C 2,2 °C 2,8 °C 84 % 1023,9 hPa 0,0 mm 0,0 mm 1,4 km/h 4,7 km/h NO 0,0 W/qm 0,0 nein 04:10
04:15-2,4 °C 2,2 °C 2,8 °C 84 % 1024,0 hPa 0,0 mm - 0,0 km/h 6,5 km/h NO 0,0 W/qm 0,0 nein 04:15
04:20-2,4 °C 2,2 °C 2,8 °C 84 % 1024,0 hPa 0,0 mm - 0,0 km/h 6,5 km/h NO 0,0 W/qm 0,0 nein 04:20
04:25-2,4 °C 2,2 °C 2,8 °C 84 % 1024,0 hPa 0,0 mm - 0,0 km/h 3,2 km/h NO 0,0 W/qm 0,0 nein 04:25
04:30-2,4 °C 2,2 °C 2,8 °C 84 % 1024,0 hPa 0,0 mm - 0,0 km/h 1,4 km/h NO 0,0 W/qm 0,0 nein 04:30
04:35-2,5 °C 2,2 °C 2,8 °C 84 % 1024,1 hPa 0,0 mm - 0,0 km/h 0,0 km/h NO 0,0 W/qm 0,0 nein 04:35
04:40-2,5 °C 2,2 °C 2,8 °C 84 % 1024,2 hPa 0,0 mm - 0,0 km/h 0,0 km/h NO 0,0 W/qm 0,0 nein 04:40
04:45-2,5 °C 2,2 °C 2,8 °C 84 % 1024,2 hPa 0,0 mm - 0,0 km/h 0,0 km/h NO 0,0 W/qm 0,0 nein 04:45
04:50-2,5 °C 2,2 °C 2,8 °C 85 % 1024,2 hPa 0,0 mm - 0,0 km/h 0,0 km/h NO 0,0 W/qm 0,0 nein 04:50
04:55-2,4 °C 2,2 °C 2,8 °C 85 % 1024,1 hPa 0,0 mm - 0,0 km/h 0,0 km/h NO 0,0 W/qm 0,0 nein 04:55
05:00-2,4 °C 2,2 °C 2,8 °C 84 % 1024,1 hPa 0,0 mm - 0,0 km/h 4,7 km/h NO 0,0 W/qm 0,0 nein 05:00
05:05-2,4 °C 2,2 °C 2,8 °C 85 % 1024,1 hPa 0,0 mm 0,0 mm 0,0 km/h 4,7 km/h NO 0,0 W/qm 0,0 nein 05:05
05:10-2,4 °C 2,2 °C 2,8 °C 85 % 1024,1 hPa 0,0 mm 0,0 mm 0,0 km/h 4,7 km/h NO 0,0 W/qm 0,0 nein 05:10
05:15-2,3 °C 2,2 °C 2,8 °C 85 % 1024,1 hPa 0,0 mm - 1,4 km/h 0,0 km/h NO 0,0 W/qm 0,0 nein 05:15
05:20-2,3 °C 2,2 °C 2,8 °C 85 % 1024,2 hPa 0,0 mm - 1,4 km/h 3,2 km/h NO 0,0 W/qm 0,0 nein 05:20
05:25-2,3 °C 2,2 °C 2,8 °C 85 % 1024,3 hPa 0,0 mm - 0,0 km/h 6,5 km/h NO 0,0 W/qm 0,0 nein 05:25
05:30-2,3 °C 2,2 °C 2,8 °C 85 % 1024,3 hPa 0,0 mm - 0,0 km/h 6,5 km/h NO 0,0 W/qm 0,0 nein 05:30
05:35-2,3 °C 2,2 °C 2,8 °C 85 % 1024,4 hPa 0,0 mm - 0,0 km/h 6,5 km/h NO 0,0 W/qm 0,0 nein 05:35
05:40-2,2 °C 2,2 °C 2,8 °C 85 % 1024,4 hPa 0,0 mm - 0,0 km/h 6,5 km/h NO 0,0 W/qm 0,0 nein 05:40
05:45-2,1 °C 2,2 °C 2,8 °C 85 % 1024,4 hPa 0,0 mm - 0,0 km/h 6,5 km/h NNO 0,0 W/qm 0,0 nein 05:45
05:50-1,7 °C 2,2 °C 2,8 °C 84 % 1024,4 hPa 0,0 mm - 1,4 km/h 3,2 km/h NO 0,0 W/qm 0,0 nein 05:50
05:55-1,6 °C 2,2 °C 2,8 °C 83 % 1024,4 hPa 0,0 mm - 0,0 km/h 6,5 km/h NO 0,0 W/qm 0,0 nein 05:55
UhrzeitTemperaturBoden 10cmBoden 20cmFeuchteLuftdruckNiederschlagEvapotranspirationWindWindböenWindrichtungSolarstrahlungUV-IndexSonne?Uhrzeit
06:00-1,6 °C 2,2 °C 2,8 °C 83 % 1024,5 hPa 0,0 mm - 0,0 km/h 6,5 km/h NNO 0,0 W/qm 0,0 nein 06:00
06:05-1,6 °C 2,2 °C 2,8 °C 83 % 1024,5 hPa 0,0 mm 0,0 mm 1,4 km/h 4,7 km/h NNO 0,0 W/qm 0,0 nein 06:05
06:10-1,5 °C 2,2 °C 2,8 °C 83 % 1024,4 hPa 0,0 mm 0,0 mm 1,4 km/h 4,7 km/h NO 0,0 W/qm 0,0 nein 06:10
06:15-1,4 °C 2,2 °C 2,8 °C 82 % 1024,5 hPa 0,0 mm - 0,0 km/h 6,5 km/h NNO 0,0 W/qm 0,0 nein 06:15
06:20-1,4 °C 2,2 °C 2,8 °C 82 % 1024,4 hPa 0,0 mm - 0,0 km/h 6,5 km/h NNO 0,0 W/qm 0,0 nein 06:20
06:25-1,3 °C 2,2 °C 2,8 °C 81 % 1024,5 hPa 0,0 mm - 0,0 km/h 6,5 km/h NNO 0,0 W/qm 0,0 nein 06:25
06:30-1,4 °C 2,2 °C 2,8 °C 81 % 1024,4 hPa 0,0 mm - 0,0 km/h 4,7 km/h NNO 0,0 W/qm 0,0 nein 06:30
06:35-1,5 °C 2,2 °C 2,8 °C 82 % 1024,5 hPa 0,0 mm - 0,0 km/h 4,7 km/h NNO 0,0 W/qm 0,0 nein 06:35
06:40-1,6 °C 2,2 °C 2,8 °C 82 % 1024,5 hPa 0,0 mm - 0,0 km/h 4,7 km/h NO 0,0 W/qm 0,0 nein 06:40
06:45-1,7 °C 2,2 °C 2,8 °C 82 % 1024,6 hPa 0,0 mm - 0,0 km/h 4,7 km/h NO 0,0 W/qm 0,0 nein 06:45
06:50-1,8 °C 2,2 °C 2,8 °C 83 % 1024,6 hPa 0,0 mm - 0,0 km/h 4,7 km/h NO 5,0 W/qm 0,0 nein 06:50
06:55-1,8 °C 2,2 °C 2,8 °C 83 % 1024,7 hPa 0,0 mm - 0,0 km/h 4,7 km/h NO 7,0 W/qm 0,0 nein 06:55
07:00-1,8 °C 2,2 °C 2,8 °C 83 % 1024,6 hPa 0,0 mm - 0,0 km/h 0,0 km/h NO 11,0 W/qm 0,0 nein 07:00
07:05-1,9 °C 2,2 °C 2,8 °C 84 % 1024,7 hPa 0,0 mm 0,0 mm 0,0 km/h 3,2 km/h NO 16,0 W/qm 0,0 nein 07:05
07:10-1,8 °C 2,2 °C 2,8 °C 83 % 1024,6 hPa 0,0 mm 0,0 mm 1,4 km/h 3,2 km/h NO 19,0 W/qm 0,0 nein 07:10
07:15-1,8 °C 2,2 °C 2,8 °C 83 % 1024,7 hPa 0,0 mm - 1,4 km/h 4,7 km/h NNO 19,0 W/qm 0,0 nein 07:15
07:20-2,2 °C 2,2 °C 2,8 °C 83 % 1024,7 hPa 0,0 mm - 0,0 km/h 6,5 km/h N 23,0 W/qm 0,0 nein 07:20
07:25-2,2 °C 2,2 °C 2,8 °C 84 % 1024,7 hPa 0,0 mm - 0,0 km/h 6,5 km/h NO 28,0 W/qm 0,0 nein 07:25
07:30-2,4 °C 2,2 °C 2,8 °C 84 % 1024,9 hPa 0,0 mm - 0,0 km/h 4,7 km/h NO 35,0 W/qm 0,0 nein 07:30
07:35-2,2 °C 2,2 °C 2,8 °C 85 % 1024,8 hPa 0,0 mm - 1,4 km/h 4,7 km/h NNO 39,0 W/qm 0,0 nein 07:35
07:40-2,0 °C 2,2 °C 2,8 °C 84 % 1024,8 hPa 0,0 mm - 1,4 km/h 6,5 km/h NW 46,0 W/qm 0,0 nein 07:40
07:45-2,1 °C 2,2 °C 2,8 °C 84 % 1024,8 hPa 0,0 mm - 1,4 km/h 6,5 km/h NO 54,0 W/qm 0,0 nein 07:45
07:50-1,9 °C 2,2 °C 2,8 °C 84 % 1024,7 hPa 0,0 mm - 1,4 km/h 6,5 km/h NO 62,0 W/qm 0,0 nein 07:50
07:55-1,6 °C 2,2 °C 2,8 °C 83 % 1024,8 hPa 0,0 mm - 1,4 km/h 4,7 km/h NO 72,0 W/qm 0,0 nein 07:55
UhrzeitTemperaturBoden 10cmBoden 20cmFeuchteLuftdruckNiederschlagEvapotranspirationWindWindböenWindrichtungSolarstrahlungUV-IndexSonne?Uhrzeit
08:00-1,3 °C 2,2 °C 2,8 °C 82 % 1024,7 hPa 0,0 mm - 1,4 km/h 3,2 km/h NNO 77,0 W/qm 0,0 nein 08:00
08:05-1,2 °C 2,2 °C 2,8 °C 81 % 1024,8 hPa 0,0 mm 0,0 mm 1,4 km/h 4,7 km/h NO 81,0 W/qm 0,0 nein 08:05
08:10-1,1 °C 2,2 °C 2,8 °C 80 % 1024,7 hPa 0,0 mm 0,0 mm 1,4 km/h 4,7 km/h NNO 91,0 W/qm 0,0 nein 08:10
08:15-0,9 °C 2,2 °C 2,8 °C 80 % 1024,7 hPa 0,0 mm - 1,4 km/h 4,7 km/h NNO 90,0 W/qm 0,0 nein 08:15
08:20-0,9 °C 2,2 °C 2,8 °C 80 % 1024,7 hPa 0,0 mm - 1,4 km/h 6,5 km/h NNO 86,0 W/qm 0,0 nein 08:20
08:25-0,8 °C 2,2 °C 2,8 °C 80 % 1024,7 hPa 0,0 mm - 1,4 km/h 6,5 km/h NO 91,0 W/qm 0,0 nein 08:25
08:30-0,7 °C 2,2 °C 2,8 °C 79 % 1024,8 hPa 0,0 mm - 3,2 km/h 6,5 km/h N 107,0 W/qm 0,0 nein 08:30
08:35-0,3 °C 2,2 °C 2,8 °C 79 % 1024,8 hPa 0,0 mm - 3,2 km/h 7,9 km/h NO 104,0 W/qm 0,0 nein 08:35
08:40-0,2 °C 2,2 °C 2,8 °C 79 % 1024,7 hPa 0,0 mm - 3,2 km/h 7,9 km/h N 88,0 W/qm 0,0 nein 08:40
08:45-0,1 °C 2,2 °C 2,8 °C 77 % 1024,7 hPa 0,0 mm - 3,2 km/h 7,9 km/h O 236,0 W/qm 0,0 ja 08:45
08:500,1 °C 2,2 °C 2,8 °C 77 % 1024,7 hPa 0,0 mm - 3,2 km/h 7,9 km/h ONO 262,0 W/qm 0,5 ja 08:50
08:550,3 °C 1,7 °C 2,8 °C 77 % 1024,7 hPa 0,0 mm - 3,2 km/h 7,9 km/h NNO 272,0 W/qm 0,5 ja 08:55
09:000,4 °C 1,7 °C 2,8 °C 76 % 1024,7 hPa 0,0 mm - 1,4 km/h 7,9 km/h NO 290,0 W/qm 0,6 ja 09:00
09:050,6 °C 1,7 °C 2,8 °C 74 % 1024,7 hPa 0,0 mm 0,1 mm 1,4 km/h 7,9 km/h NO 294,0 W/qm 0,6 ja 09:05
09:100,7 °C 1,7 °C 2,8 °C 73 % 1024,7 hPa 0,0 mm 0,1 mm 3,2 km/h 7,9 km/h NO 308,0 W/qm 0,6 ja 09:10
09:150,9 °C 2,2 °C 2,8 °C 72 % 1024,7 hPa 0,0 mm - 4,7 km/h 7,9 km/h NO 322,0 W/qm 0,7 ja 09:15
09:201,1 °C 1,7 °C 2,8 °C 72 % 1024,7 hPa 0,0 mm - 4,7 km/h 11,2 km/h NO 338,0 W/qm 0,7 ja 09:20
09:251,2 °C 1,7 °C 2,8 °C 71 % 1024,6 hPa 0,0 mm - 4,7 km/h 11,2 km/h OSO 350,0 W/qm 0,7 ja 09:25
09:301,3 °C 1,7 °C 2,8 °C 69 % 1024,6 hPa 0,0 mm - 4,7 km/h 11,2 km/h NO 369,0 W/qm 0,8 ja 09:30
09:351,4 °C 2,2 °C 2,8 °C 70 % 1024,7 hPa 0,0 mm - 3,2 km/h 13,0 km/h SO 392,0 W/qm 0,8 ja 09:35
09:401,6 °C 2,2 °C 2,8 °C 68 % 1024,6 hPa 0,0 mm - 3,2 km/h 13,0 km/h ONO 397,0 W/qm 0,9 ja 09:40
09:451,8 °C 2,2 °C 2,8 °C 68 % 1024,6 hPa 0,0 mm - 4,7 km/h 13,0 km/h ONO 404,0 W/qm 0,9 ja 09:45
09:501,7 °C 2,2 °C 2,8 °C 66 % 1024,6 hPa 0,0 mm - 6,5 km/h 13,0 km/h NNO 411,0 W/qm 0,9 ja 09:50
09:551,7 °C 2,2 °C 2,8 °C 66 % 1024,6 hPa 0,0 mm - 6,5 km/h 13,0 km/h NO 417,0 W/qm 0,9 ja 09:55
UhrzeitTemperaturBoden 10cmBoden 20cmFeuchteLuftdruckNiederschlagEvapotranspirationWindWindböenWindrichtungSolarstrahlungUV-IndexSonne?Uhrzeit
10:001,8 °C 2,2 °C 2,8 °C 65 % 1024,5 hPa 0,0 mm - 6,5 km/h 14,4 km/h S 425,0 W/qm 1,0 ja 10:00
10:052,3 °C 2,2 °C 2,8 °C 64 % 1024,3 hPa 0,0 mm 0,2 mm 6,5 km/h 16,2 km/h NO 439,0 W/qm 1,0 ja 10:05
10:102,1 °C 2,2 °C 2,8 °C 65 % 1024,4 hPa 0,0 mm 0,2 mm 6,5 km/h 16,2 km/h SO 137,0 W/qm 1,0 nein 10:10
10:151,9 °C 2,2 °C 2,8 °C 62 % 1024,4 hPa 0,0 mm - 6,5 km/h 17,6 km/h O 146,0 W/qm 0,9 nein 10:15
10:201,9 °C 2,2 °C 2,8 °C 62 % 1024,3 hPa 0,0 mm - 4,7 km/h 17,6 km/h NNO 190,0 W/qm 0,9 nein 10:20
10:251,8 °C 2,2 °C 2,8 °C 62 % 1024,5 hPa 0,0 mm - 6,5 km/h 17,6 km/h OSO 199,0 W/qm 0,9 nein 10:25
10:301,9 °C 2,2 °C 2,8 °C 61 % 1024,3 hPa 0,0 mm - 6,5 km/h 14,4 km/h NO 243,0 W/qm 0,9 ja 10:30
10:352,1 °C 2,2 °C 2,8 °C 59 % 1024,4 hPa 0,0 mm - 4,7 km/h 16,2 km/h OSO 274,0 W/qm 1,0 ja 10:35
10:402,5 °C 2,2 °C 2,8 °C 58 % 1024,4 hPa 0,0 mm - 4,7 km/h 16,2 km/h SO 717,0 W/qm 1,3 ja 10:40
10:453,1 °C 2,2 °C 2,8 °C 53 % 1024,2 hPa 0,0 mm - 7,9 km/h 14,4 km/h ONO 675,0 W/qm 1,4 ja 10:45
10:503,5 °C 2,2 °C 2,8 °C 54 % 1024,2 hPa 0,0 mm - 7,9 km/h 17,6 km/h NO 594,0 W/qm 1,1 ja 10:50
10:552,9 °C 2,2 °C 2,8 °C 52 % 1024,2 hPa 0,0 mm - 6,5 km/h 17,6 km/h OSO 258,0 W/qm 1,1 ja 10:55
11:003,4 °C 2,2 °C 2,8 °C 53 % 1024,1 hPa 0,0 mm - 4,7 km/h 17,6 km/h NNO 719,0 W/qm 1,3 ja 11:00
11:053,4 °C 2,2 °C 2,8 °C 52 % 1024,1 hPa 0,0 mm 0,4 mm 6,5 km/h 16,2 km/h ONO 345,0 W/qm 1,1 ja 11:05
11:103,2 °C 2,2 °C 2,8 °C 52 % 1024,2 hPa 0,0 mm 0,4 mm 7,9 km/h 17,6 km/h N 269,0 W/qm 0,9 ja 11:10
11:152,9 °C 2,2 °C 2,8 °C 56 % 1024,2 hPa 0,0 mm - 6,5 km/h 17,6 km/h NNO 216,0 W/qm 0,7 ja 11:15
11:202,7 °C 2,2 °C 2,8 °C 55 % 1024,2 hPa 0,0 mm - 7,9 km/h 17,6 km/h NO 236,0 W/qm 0,8 ja 11:20
11:252,6 °C 2,2 °C 2,8 °C 55 % 1024,2 hPa 0,0 mm - 6,5 km/h 16,2 km/h O 257,0 W/qm 0,9 ja 11:25
11:302,6 °C 2,2 °C 2,8 °C 53 % 1024,2 hPa 0,0 mm - 4,7 km/h 16,2 km/h SO 281,0 W/qm 1,0 ja 11:30
11:352,6 °C 2,2 °C 2,8 °C 56 % 1024,3 hPa 0,0 mm - 6,5 km/h 16,2 km/h N 274,0 W/qm 0,9 ja 11:35
11:402,6 °C 2,2 °C 2,8 °C 56 % 1024,2 hPa 0,0 mm - 6,5 km/h 14,4 km/h NO 257,0 W/qm 0,9 ja 11:40
11:452,7 °C 2,2 °C 2,8 °C 56 % 1024,2 hPa 0,0 mm - 6,5 km/h 14,4 km/h NO 227,0 W/qm 0,8 ja 11:45
11:502,6 °C 2,2 °C 2,8 °C 56 % 1024,2 hPa 0,0 mm - 9,7 km/h 14,4 km/h NO 239,0 W/qm 0,8 ja 11:50
11:552,7 °C 2,2 °C 2,8 °C 58 % 1024,2 hPa 0,0 mm - 9,7 km/h 19,4 km/h ONO 260,0 W/qm 0,9 ja 11:55
UhrzeitTemperaturBoden 10cmBoden 20cmFeuchteLuftdruckNiederschlagEvapotranspirationWindWindböenWindrichtungSolarstrahlungUV-IndexSonne?Uhrzeit
12:002,6 °C 2,2 °C 2,8 °C 55 % 1024,3 hPa 0,0 mm - 7,9 km/h 19,4 km/h OSO 281,0 W/qm 1,0 ja 12:00
12:052,5 °C 2,2 °C 2,8 °C 54 % 1024,3 hPa 0,0 mm 0,5 mm 6,5 km/h 19,4 km/h O 283,0 W/qm 1,0 ja 12:05
12:102,6 °C 2,2 °C 2,8 °C 53 % 1024,1 hPa 0,0 mm 0,5 mm 4,7 km/h 16,2 km/h SO 306,0 W/qm 1,0 ja 12:10
12:152,8 °C 2,2 °C 2,8 °C 55 % 1024,2 hPa 0,0 mm - 4,7 km/h 16,2 km/h ONO 313,0 W/qm 1,0 ja 12:15
12:202,8 °C 2,2 °C 2,8 °C 54 % 1024,1 hPa 0,0 mm - 6,5 km/h 14,4 km/h NO 278,0 W/qm 0,9 ja 12:20
12:252,7 °C 2,2 °C 2,8 °C 53 % 1024,1 hPa 0,0 mm - 4,7 km/h 14,4 km/h ONO 251,0 W/qm 0,9 ja 12:25
12:302,7 °C 2,2 °C 2,8 °C 53 % 1024,1 hPa 0,0 mm - 4,7 km/h 14,4 km/h NO 243,0 W/qm 0,8 ja 12:30
12:352,6 °C 2,2 °C 2,8 °C 54 % 1024,1 hPa 0,0 mm - 6,5 km/h 13,0 km/h NO 244,0 W/qm 0,8 ja 12:35
12:402,6 °C 2,2 °C 2,8 °C 55 % 1024,1 hPa 0,0 mm - 6,5 km/h 13,0 km/h NO 230,0 W/qm 0,8 ja 12:40
12:452,6 °C 2,2 °C 2,8 °C 54 % 1024,1 hPa 0,0 mm - 4,7 km/h 13,0 km/h NO 209,0 W/qm 0,8 nein 12:45
12:502,6 °C 2,2 °C 2,8 °C 55 % 1024,0 hPa 0,0 mm - 6,5 km/h 13,0 km/h ONO 200,0 W/qm 0,7 nein 12:50
12:552,6 °C 2,2 °C 2,8 °C 55 % 1024,0 hPa 0,0 mm - 7,9 km/h 13,0 km/h NO 211,0 W/qm 0,8 ja 12:55
13:002,5 °C 2,2 °C 2,8 °C 54 % 1023,9 hPa 0,0 mm - 6,5 km/h 13,0 km/h NO 241,0 W/qm 0,9 ja 13:00
13:052,5 °C 2,2 °C 2,8 °C 54 % 1023,9 hPa 0,0 mm 0,6 mm 4,7 km/h 13,0 km/h NNO 272,0 W/qm 1,0 ja 13:05
13:102,7 °C 2,2 °C 2,8 °C 55 % 1023,9 hPa 0,0 mm 0,6 mm 4,7 km/h 13,0 km/h NO 260,0 W/qm 0,9 ja 13:10
13:152,6 °C 2,2 °C 2,8 °C 54 % 1023,9 hPa 0,0 mm - 4,7 km/h 13,0 km/h NO 246,0 W/qm 0,9 ja 13:15
13:202,6 °C 2,2 °C 2,8 °C 56 % 1023,8 hPa 0,0 mm - 4,7 km/h 14,4 km/h N 244,0 W/qm 0,8 ja 13:20
13:252,7 °C 2,2 °C 2,8 °C 55 % 1023,8 hPa 0,0 mm - 6,5 km/h 14,4 km/h ONO 251,0 W/qm 0,9 ja 13:25
13:302,6 °C 2,2 °C 2,8 °C 55 % 1023,8 hPa 0,0 mm - 7,9 km/h 17,6 km/h ONO 251,0 W/qm 0,9 ja 13:30
13:352,6 °C 2,2 °C 2,8 °C 55 % 1023,7 hPa 0,0 mm - 9,7 km/h 17,6 km/h NO 257,0 W/qm 0,9 ja 13:35
13:402,6 °C 2,2 °C 2,8 °C 55 % 1023,6 hPa 0,0 mm - 9,7 km/h 17,6 km/h NO 244,0 W/qm 0,9 ja 13:40
13:452,6 °C 2,2 °C 2,8 °C 56 % 1023,7 hPa 0,0 mm - 9,7 km/h 17,6 km/h NO 223,0 W/qm 0,8 ja 13:45
13:502,7 °C 2,2 °C 2,8 °C 55 % 1023,6 hPa 0,0 mm - 7,9 km/h 17,6 km/h NO 223,0 W/qm 0,8 ja 13:50
13:552,6 °C 2,2 °C 2,8 °C 54 % 1023,6 hPa 0,0 mm - 6,5 km/h 17,6 km/h NO 202,0 W/qm 0,7 nein 13:55
UhrzeitTemperaturBoden 10cmBoden 20cmFeuchteLuftdruckNiederschlagEvapotranspirationWindWindböenWindrichtungSolarstrahlungUV-IndexSonne?Uhrzeit
14:002,6 °C 2,2 °C 2,8 °C 54 % 1023,7 hPa 0,0 mm - 6,5 km/h 14,4 km/h NO 190,0 W/qm 0,7 nein 14:00
14:052,5 °C 2,2 °C 2,8 °C 56 % 1023,6 hPa 0,0 mm 0,7 mm 7,9 km/h 14,4 km/h ONO 195,0 W/qm 0,7 nein 14:05
14:102,5 °C 2,2 °C 2,8 °C 56 % 1023,6 hPa 0,0 mm 0,7 mm 7,9 km/h 17,6 km/h NO 214,0 W/qm 0,8 ja 14:10
14:152,4 °C 2,2 °C 2,8 °C 57 % 1023,4 hPa 0,0 mm - 7,9 km/h 17,6 km/h NO 230,0 W/qm 0,8 ja 14:15
14:202,5 °C 2,2 °C 2,8 °C 55 % 1023,5 hPa 0,0 mm - 7,9 km/h 17,6 km/h NNO 221,0 W/qm 0,8 ja 14:20
14:252,6 °C 2,8 °C 2,8 °C 56 % 1023,5 hPa 0,0 mm - 6,5 km/h 17,6 km/h NO 214,0 W/qm 0,8 ja 14:25
14:302,5 °C 2,8 °C 2,8 °C 56 % 1023,5 hPa 0,0 mm - 7,9 km/h 14,4 km/h NNO 207,0 W/qm 0,7 nein 14:30
14:352,6 °C 2,8 °C 2,8 °C 55 % 1023,5 hPa 0,0 mm - 6,5 km/h 16,2 km/h NO 204,0 W/qm 0,7 nein 14:35
14:402,5 °C 2,8 °C 2,8 °C 55 % 1023,5 hPa 0,0 mm - 6,5 km/h 16,2 km/h ONO 199,0 W/qm 0,7 nein 14:40
14:452,4 °C 2,8 °C 2,8 °C 55 % 1023,5 hPa 0,0 mm - 7,9 km/h 16,2 km/h NO 186,0 W/qm 0,6 nein 14:45
14:502,4 °C 2,8 °C 2,8 °C 55 % 1023,4 hPa 0,0 mm - 6,5 km/h 16,2 km/h NNO 178,0 W/qm 0,6 nein 14:50
14:552,4 °C 2,8 °C 2,8 °C 54 % 1023,5 hPa 0,0 mm - 6,5 km/h 16,2 km/h N 165,0 W/qm 0,6 nein 14:55
15:002,4 °C 2,8 °C 2,8 °C 55 % 1023,4 hPa 0,0 mm - 6,5 km/h 14,4 km/h NO 162,0 W/qm 0,5 nein 15:00
15:052,3 °C 2,8 °C 2,8 °C 55 % 1023,6 hPa 0,0 mm 0,8 mm 4,7 km/h 14,4 km/h NO 155,0 W/qm 0,5 nein 15:05
15:102,3 °C 2,8 °C 2,8 °C 56 % 1023,6 hPa 0,0 mm 0,8 mm 6,5 km/h 14,4 km/h ONO 149,0 W/qm 0,5 nein 15:10
15:152,2 °C 2,8 °C 2,8 °C 55 % 1023,6 hPa 0,0 mm - 7,9 km/h 13,0 km/h ONO 137,0 W/qm 0,0 nein 15:15
15:202,2 °C 2,8 °C 2,8 °C 57 % 1023,6 hPa 0,0 mm - 7,9 km/h 16,2 km/h NO 121,0 W/qm 0,0 nein 15:20
15:252,1 °C 2,8 °C 2,8 °C 56 % 1023,6 hPa 0,0 mm - 6,5 km/h 16,2 km/h NO 105,0 W/qm 0,0 nein 15:25
15:302,1 °C 2,8 °C 2,8 °C 55 % 1023,7 hPa 0,0 mm - 6,5 km/h 14,4 km/h NO 98,0 W/qm 0,0 nein 15:30
15:352,0 °C 2,8 °C 2,8 °C 56 % 1023,6 hPa 0,0 mm - 6,5 km/h 16,2 km/h NO 97,0 W/qm 0,0 nein 15:35
15:402,0 °C 2,8 °C 2,8 °C 57 % 1023,7 hPa 0,0 mm - 6,5 km/h 16,2 km/h N 90,0 W/qm 0,0 nein 15:40
15:451,9 °C 2,8 °C 2,8 °C 56 % 1023,7 hPa 0,0 mm - 6,5 km/h 16,2 km/h ONO 86,0 W/qm 0,0 nein 15:45
15:501,9 °C 2,8 °C 2,8 °C 56 % 1023,7 hPa 0,0 mm - 6,5 km/h 13,0 km/h NO 81,0 W/qm 0,0 nein 15:50
15:551,8 °C 2,8 °C 2,8 °C 56 % 1023,7 hPa 0,0 mm - 6,5 km/h 13,0 km/h NO 76,0 W/qm 0,0 nein 15:55
UhrzeitTemperaturBoden 10cmBoden 20cmFeuchteLuftdruckNiederschlagEvapotranspirationWindWindböenWindrichtungSolarstrahlungUV-IndexSonne?Uhrzeit
16:001,8 °C 2,8 °C 2,8 °C 56 % 1023,8 hPa 0,0 mm - 4,7 km/h 14,4 km/h ONO 69,0 W/qm 0,0 nein 16:00
16:051,8 °C 2,8 °C 2,8 °C 56 % 1023,8 hPa 0,0 mm 0,9 mm 6,5 km/h 14,4 km/h ONO 62,0 W/qm 0,0 nein 16:05
16:101,7 °C 2,8 °C 2,8 °C 57 % 1023,9 hPa 0,0 mm 0,9 mm 7,9 km/h 13,0 km/h NO 56,0 W/qm 0,0 nein 16:10
16:151,7 °C 2,8 °C 2,8 °C 57 % 1023,9 hPa 0,0 mm - 6,5 km/h 17,6 km/h ONO 53,0 W/qm 0,0 nein 16:15
16:201,6 °C 2,8 °C 2,8 °C 58 % 1023,9 hPa 0,0 mm - 4,7 km/h 17,6 km/h NO 49,0 W/qm 0,0 nein 16:20
16:251,6 °C 2,8 °C 2,8 °C 58 % 1023,9 hPa 0,0 mm - 6,5 km/h 13,0 km/h ONO 49,0 W/qm 0,0 nein 16:25
16:301,5 °C 2,8 °C 2,8 °C 58 % 1023,9 hPa 0,0 mm - 7,9 km/h 16,2 km/h NO 51,0 W/qm 0,0 nein 16:30
16:351,5 °C 2,8 °C 2,8 °C 60 % 1023,9 hPa 0,0 mm - 6,5 km/h 16,2 km/h NO 47,0 W/qm 0,0 nein 16:35
16:401,4 °C 2,8 °C 2,8 °C 59 % 1023,9 hPa 0,0 mm - 6,5 km/h 16,2 km/h ONO 42,0 W/qm 0,0 nein 16:40
16:451,4 °C 2,8 °C 2,8 °C 59 % 1023,9 hPa 0,0 mm - 4,7 km/h 13,0 km/h W 40,0 W/qm 0,0 nein 16:45
16:501,4 °C 2,8 °C 2,8 °C 58 % 1023,9 hPa 0,0 mm - 4,7 km/h 13,0 km/h NO 37,0 W/qm 0,0 nein 16:50
16:551,3 °C 2,8 °C 2,8 °C 58 % 1024,0 hPa 0,0 mm - 6,5 km/h 13,0 km/h NO 33,0 W/qm 0,0 nein 16:55
17:001,3 °C 2,8 °C 2,8 °C 59 % 1023,9 hPa 0,0 mm - 6,5 km/h 13,0 km/h ONO 30,0 W/qm 0,0 nein 17:00
17:051,3 °C 2,8 °C 2,8 °C 58 % 1024,0 hPa 0,0 mm 0,9 mm 6,5 km/h 16,2 km/h ONO 26,0 W/qm 0,0 nein 17:05
17:101,3 °C 2,8 °C 2,8 °C 58 % 1024,0 hPa 0,0 mm 0,9 mm 6,5 km/h 16,2 km/h ONO 25,0 W/qm 0,0 nein 17:10
17:151,2 °C 2,8 °C 2,8 °C 59 % 1023,9 hPa 0,0 mm - 6,5 km/h 16,2 km/h ONO 21,0 W/qm 0,0 nein 17:15
17:201,2 °C 2,8 °C 2,8 °C 60 % 1024,0 hPa 0,0 mm - 6,5 km/h 13,0 km/h NO 19,0 W/qm 0,0 nein 17:20
17:251,1 °C 2,8 °C 2,8 °C 60 % 1024,0 hPa 0,0 mm - 6,5 km/h 13,0 km/h NO 16,0 W/qm 0,0 nein 17:25
17:301,1 °C 2,8 °C 2,8 °C 61 % 1024,1 hPa 0,0 mm - 6,5 km/h 14,4 km/h NO 14,0 W/qm 0,0 nein 17:30
17:351,0 °C 2,8 °C 2,8 °C 63 % 1024,2 hPa 0,0 mm - 6,5 km/h 14,4 km/h NO 12,0 W/qm 0,0 nein 17:35
17:400,9 °C 2,8 °C 2,8 °C 63 % 1024,3 hPa 0,0 mm - 6,5 km/h 14,4 km/h NO 9,0 W/qm 0,0 nein 17:40
17:450,8 °C 2,8 °C 2,8 °C 63 % 1024,3 hPa 0,0 mm - 4,7 km/h 14,4 km/h NO 7,0 W/qm 0,0 nein 17:45
17:500,8 °C 2,8 °C 2,8 °C 64 % 1024,3 hPa 0,0 mm - 4,7 km/h 14,4 km/h NO 5,0 W/qm 0,0 nein 17:50
17:550,7 °C 2,8 °C 2,8 °C 64 % 1024,4 hPa 0,0 mm - 6,5 km/h 14,4 km/h NO 5,0 W/qm 0,0 nein 17:55
UhrzeitTemperaturBoden 10cmBoden 20cmFeuchteLuftdruckNiederschlagEvapotranspirationWindWindböenWindrichtungSolarstrahlungUV-IndexSonne?Uhrzeit
18:000,7 °C 2,8 °C 2,8 °C 64 % 1024,3 hPa 0,0 mm - 4,7 km/h 11,2 km/h NNO 0,0 W/qm 0,0 nein 18:00
18:050,6 °C 2,8 °C 2,8 °C 64 % 1024,3 hPa 0,0 mm 1,0 mm 4,7 km/h 11,2 km/h NO 0,0 W/qm 0,0 nein 18:05
18:100,6 °C 2,8 °C 2,8 °C 65 % 1024,4 hPa 0,0 mm 1,0 mm 6,5 km/h 11,2 km/h NO 0,0 W/qm 0,0 nein 18:10
18:150,6 °C 2,8 °C 2,8 °C 64 % 1024,5 hPa 0,0 mm - 4,7 km/h 11,2 km/h NO 0,0 W/qm 0,0 nein 18:15
18:200,5 °C 2,8 °C 2,8 °C 65 % 1024,5 hPa 0,0 mm - 4,7 km/h 11,2 km/h NO 0,0 W/qm 0,0 nein 18:20
18:250,4 °C 2,8 °C 2,8 °C 65 % 1024,6 hPa 0,0 mm - 3,2 km/h 13,0 km/h ONO 0,0 W/qm 0,0 nein 18:25
18:300,4 °C 2,8 °C 2,8 °C 64 % 1024,6 hPa 0,0 mm - 4,7 km/h 13,0 km/h NO 0,0 W/qm 0,0 nein 18:30
18:350,4 °C 2,8 °C 2,8 °C 65 % 1024,7 hPa 0,0 mm - 6,5 km/h 13,0 km/h NO 0,0 W/qm 0,0 nein 18:35
18:400,4 °C 2,8 °C 2,8 °C 65 % 1024,8 hPa 0,0 mm - 6,5 km/h 11,2 km/h ONO 0,0 W/qm 0,0 nein 18:40
18:450,4 °C 2,8 °C 2,8 °C 66 % 1024,8 hPa 0,0 mm - 6,5 km/h 9,7 km/h NO 0,0 W/qm 0,0 nein 18:45
18:500,3 °C 2,8 °C 2,8 °C 66 % 1024,8 hPa 0,0 mm - 6,5 km/h 13,0 km/h NO 0,0 W/qm 0,0 nein 18:50
18:550,3 °C 2,8 °C 2,8 °C 66 % 1024,8 hPa 0,0 mm - 6,5 km/h 13,0 km/h NNO 0,0 W/qm 0,0 nein 18:55
19:000,3 °C 2,8 °C 2,8 °C 65 % 1024,9 hPa 0,0 mm - 6,5 km/h 13,0 km/h ONO 0,0 W/qm 0,0 nein 19:00
19:050,2 °C 2,8 °C 2,8 °C 65 % 1025,0 hPa 0,0 mm 1,0 mm 6,5 km/h 13,0 km/h NNO 0,0 W/qm 0,0 nein 19:05
19:100,2 °C 2,8 °C 2,8 °C 64 % 1025,0 hPa 0,0 mm 1,0 mm 4,7 km/h 14,4 km/h NO 0,0 W/qm 0,0 nein 19:10
19:150,2 °C 2,8 °C 2,8 °C 65 % 1025,0 hPa 0,0 mm - 4,7 km/h 14,4 km/h NO 0,0 W/qm 0,0 nein 19:15
19:200,2 °C 2,8 °C 2,8 °C 64 % 1025,0 hPa 0,0 mm - 6,5 km/h 14,4 km/h NO 0,0 W/qm 0,0 nein 19:20
19:250,1 °C 2,8 °C 2,8 °C 63 % 1025,1 hPa 0,0 mm - 7,9 km/h 14,4 km/h NO 0,0 W/qm 0,0 nein 19:25
19:300,1 °C 2,8 °C 2,8 °C 63 % 1025,0 hPa 0,0 mm - 7,9 km/h 14,4 km/h NO 0,0 W/qm 0,0 nein 19:30
19:350,1 °C 2,8 °C 2,8 °C 63 % 1025,0 hPa 0,0 mm - 6,5 km/h 14,4 km/h ONO 0,0 W/qm 0,0 nein 19:35
19:400,0 °C 2,8 °C 2,8 °C 62 % 1025,0 hPa 0,0 mm - 4,7 km/h 13,0 km/h NNO 0,0 W/qm 0,0 nein 19:40
19:450,0 °C 2,8 °C 2,8 °C 63 % 1025,1 hPa 0,0 mm - 6,5 km/h 13,0 km/h ONO 0,0 W/qm 0,0 nein 19:45
19:500,0 °C 2,8 °C 2,8 °C 63 % 1025,0 hPa 0,0 mm - 6,5 km/h 11,2 km/h NNO 0,0 W/qm 0,0 nein 19:50
19:55- - - - - 0,0 mm - - 11,2 km/h - - - nein 19:55
UhrzeitTemperaturBoden 10cmBoden 20cmFeuchteLuftdruckNiederschlagEvapotranspirationWindWindböenWindrichtungSolarstrahlungUV-IndexSonne?Uhrzeit
20:00-0,1 °C 2,8 °C 2,8 °C 63 % 1025,3 hPa 0,0 mm - 4,7 km/h 11,2 km/h ONO 0,0 W/qm 0,0 nein 20:00
20:05-0,2 °C 2,8 °C 2,8 °C 63 % 1025,3 hPa 0,0 mm 1,0 mm 4,7 km/h 9,7 km/h NO 0,0 W/qm 0,0 nein 20:05
20:10-0,2 °C 2,8 °C 2,8 °C 63 % 1025,4 hPa 0,0 mm 1,0 mm 4,7 km/h 7,9 km/h NO 0,0 W/qm 0,0 nein 20:10
20:15-0,2 °C 2,8 °C 2,8 °C 63 % 1025,4 hPa 0,0 mm - 6,5 km/h 9,7 km/h NO 0,0 W/qm 0,0 nein 20:15
20:20-0,2 °C 2,8 °C 2,8 °C 63 % 1025,4 hPa 0,0 mm - 4,7 km/h 9,7 km/h ONO 0,0 W/qm 0,0 nein 20:20
20:25-0,3 °C 2,8 °C 2,8 °C 63 % 1025,5 hPa 0,0 mm - 4,7 km/h 9,7 km/h NO 0,0 W/qm 0,0 nein 20:25
20:30-0,3 °C 2,8 °C 2,8 °C 63 % 1025,5 hPa 0,0 mm - 6,5 km/h 11,2 km/h NO 0,0 W/qm 0,0 nein 20:30
20:35-0,3 °C 2,2 °C 2,8 °C 63 % 1025,6 hPa 0,0 mm - 6,5 km/h 11,2 km/h NO 0,0 W/qm 0,0 nein 20:35
20:40-0,4 °C 2,2 °C 2,8 °C 64 % 1025,5 hPa 0,0 mm - 4,7 km/h 13,0 km/h ONO 0,0 W/qm 0,0 nein 20:40
20:45-0,4 °C 2,2 °C 2,8 °C 63 % 1025,5 hPa 0,0 mm - 4,7 km/h 13,0 km/h ONO 0,0 W/qm 0,0 nein 20:45
20:50-0,4 °C 2,2 °C 2,8 °C 64 % 1025,5 hPa 0,0 mm - 6,5 km/h 13,0 km/h NO 0,0 W/qm 0,0 nein 20:50
20:55-0,5 °C 2,2 °C 2,8 °C 65 % 1025,6 hPa 0,0 mm - 6,5 km/h 13,0 km/h NO 0,0 W/qm 0,0 nein 20:55
21:00-0,5 °C 2,2 °C 2,8 °C 64 % 1025,6 hPa 0,0 mm - 6,5 km/h 13,0 km/h NO 0,0 W/qm 0,0 nein 21:00
21:05-0,6 °C 2,2 °C 2,8 °C 64 % 1025,7 hPa 0,0 mm 1,0 mm 6,5 km/h 14,4 km/h ONO 0,0 W/qm 0,0 nein 21:05
21:10-0,6 °C 2,2 °C 2,8 °C 64 % 1025,7 hPa 0,0 mm 1,0 mm 4,7 km/h 14,4 km/h NO 0,0 W/qm 0,0 nein 21:10
21:15-0,6 °C 2,2 °C 2,8 °C 63 % 1025,7 hPa 0,0 mm - 6,5 km/h 14,4 km/h ONO 0,0 W/qm 0,0 nein 21:15
21:20-0,7 °C 2,2 °C 2,8 °C 64 % 1025,8 hPa 0,0 mm - 6,5 km/h 16,2 km/h ONO 0,0 W/qm 0,0 nein 21:20
21:25-0,7 °C 2,2 °C 2,8 °C 64 % 1025,8 hPa 0,0 mm - 4,7 km/h 16,2 km/h NO 0,0 W/qm 0,0 nein 21:25
21:30-0,7 °C 2,2 °C 2,8 °C 64 % 1025,9 hPa 0,0 mm - 4,7 km/h 16,2 km/h NO 0,0 W/qm 0,0 nein 21:30
21:35-0,7 °C 2,2 °C 2,8 °C 64 % 1025,9 hPa 0,0 mm - 6,5 km/h 13,0 km/h NO 0,0 W/qm 0,0 nein 21:35
21:40-0,8 °C 2,2 °C 2,8 °C 64 % 1026,0 hPa 0,0 mm - 4,7 km/h 13,0 km/h ONO 0,0 W/qm 0,0 nein 21:40
21:45-0,8 °C 2,2 °C 2,8 °C 64 % 1026,0 hPa 0,0 mm - 4,7 km/h 9,7 km/h NO 0,0 W/qm 0,0 nein 21:45
21:50-0,8 °C 2,2 °C 2,8 °C 63 % 1026,1 hPa 0,0 mm - 4,7 km/h 7,9 km/h NO 0,0 W/qm 0,0 nein 21:50
21:55-0,8 °C 2,2 °C 2,8 °C 64 % 1026,1 hPa 0,0 mm - 4,7 km/h 9,7 km/h NO 0,0 W/qm 0,0 nein 21:55
UhrzeitTemperaturBoden 10cmBoden 20cmFeuchteLuftdruckNiederschlagEvapotranspirationWindWindböenWindrichtungSolarstrahlungUV-IndexSonne?Uhrzeit
22:00-0,9 °C 2,2 °C 2,8 °C 64 % 1026,1 hPa 0,0 mm - 4,7 km/h 11,2 km/h NO 0,0 W/qm 0,0 nein 22:00
22:05-0,9 °C 2,2 °C 2,8 °C 64 % 1026,1 hPa 0,0 mm 1,1 mm 4,7 km/h 13,0 km/h ONO 0,0 W/qm 0,0 nein 22:05
22:10-0,9 °C 2,2 °C 2,8 °C 64 % 1026,1 hPa 0,0 mm 1,1 mm 4,7 km/h 13,0 km/h NNO 0,0 W/qm 0,0 nein 22:10
22:15-0,9 °C 2,2 °C 2,8 °C 65 % 1026,1 hPa 0,0 mm - 3,2 km/h 13,0 km/h NO 0,0 W/qm 0,0 nein 22:15
22:20-1,0 °C 2,2 °C 2,8 °C 64 % 1026,1 hPa 0,0 mm - 3,2 km/h 7,9 km/h ONO 0,0 W/qm 0,0 nein 22:20
22:25-1,0 °C 2,2 °C 2,8 °C 65 % 1026,2 hPa 0,0 mm - 3,2 km/h 7,9 km/h NO 0,0 W/qm 0,0 nein 22:25
22:30-1,1 °C 2,2 °C 2,8 °C 65 % 1026,1 hPa 0,0 mm - 1,4 km/h 7,9 km/h NO 0,0 W/qm 0,0 nein 22:30
22:35-1,1 °C 2,2 °C 2,8 °C 65 % 1026,1 hPa 0,0 mm - 1,4 km/h 7,9 km/h NO 0,0 W/qm 0,0 nein 22:35
22:40-1,1 °C 2,2 °C 2,8 °C 65 % 1026,3 hPa 0,0 mm - 3,2 km/h 6,5 km/h NO 0,0 W/qm 0,0 nein 22:40
22:45-1,1 °C 2,2 °C 2,8 °C 65 % 1026,4 hPa 0,0 mm - 3,2 km/h 6,5 km/h NO 0,0 W/qm 0,0 nein 22:45
22:50-1,1 °C 2,2 °C 2,8 °C 65 % 1026,4 hPa 0,0 mm - 4,7 km/h 7,9 km/h NO 0,0 W/qm 0,0 nein 22:50
22:55-1,1 °C 2,2 °C 2,8 °C 65 % 1026,4 hPa 0,0 mm - 4,7 km/h 11,2 km/h NNO 0,0 W/qm 0,0 nein 22:55
23:00-1,1 °C 2,2 °C 2,8 °C 66 % 1026,4 hPa 0,0 mm - 3,2 km/h 11,2 km/h NO 0,0 W/qm 0,0 nein 23:00
23:05-1,1 °C 2,2 °C 2,8 °C 65 % 1026,4 hPa 0,0 mm 1,1 mm 4,7 km/h 11,2 km/h NO 0,0 W/qm 0,0 nein 23:05
23:10-1,2 °C 2,2 °C 2,8 °C 65 % 1026,4 hPa 0,0 mm 1,1 mm 4,7 km/h 6,5 km/h NO 0,0 W/qm 0,0 nein 23:10
23:15-1,2 °C 2,2 °C 2,8 °C 65 % 1026,4 hPa 0,0 mm - 3,2 km/h 6,5 km/h NO 0,0 W/qm 0,0 nein 23:15
23:20-1,2 °C 2,2 °C 2,8 °C 66 % 1026,5 hPa 0,0 mm - 1,4 km/h 6,5 km/h ONO 0,0 W/qm 0,0 nein 23:20
23:25-1,2 °C 2,2 °C 2,8 °C 65 % 1026,5 hPa 0,0 mm - 1,4 km/h 6,5 km/h ONO 0,0 W/qm 0,0 nein 23:25
23:30-1,2 °C 2,2 °C 2,8 °C 65 % 1026,4 hPa 0,0 mm - 0,0 km/h 6,5 km/h NO 0,0 W/qm 0,0 nein 23:30
23:35-1,2 °C 2,2 °C 2,8 °C 65 % 1026,4 hPa 0,0 mm - 0,0 km/h 6,5 km/h NO 0,0 W/qm 0,0 nein 23:35
23:40-1,2 °C 2,2 °C 2,8 °C 65 % 1026,4 hPa 0,0 mm - 0,0 km/h 4,7 km/h NO 0,0 W/qm 0,0 nein 23:40
23:45-1,3 °C 2,2 °C 2,8 °C 66 % 1026,5 hPa 0,0 mm - 1,4 km/h 0,0 km/h NO 0,0 W/qm 0,0 nein 23:45
23:50-1,3 °C 2,2 °C 2,8 °C 66 % 1026,5 hPa 0,0 mm - 3,2 km/h 6,5 km/h ONO 0,0 W/qm 0,0 nein 23:50
23:55-1,3 °C 2,2 °C 2,8 °C 67 % 1026,5 hPa 0,0 mm - 3,2 km/h 6,5 km/h NNO 0,0 W/qm 0,0 nein 23:55
Gesamt: 0,1 °C 2,3 °C 2,8 °C 69 % 1024,5 hPa 0,0 mm 22,7 mm 3,7 km/h 9,9 km/h 0 86,0 W/qm 0,2 ja

Insgesamt 288 Zeilen mal 13 Spalten = 3744 Werte werden angezeigt.

www.wetter-rosstal.de   •   www.wetter-franken.de   •   www.lightningmaps.org   •   Start   •   Kontakt / Datenschutz   •   PC-Kümmerer